sensor_id;sensor_type;location;lat;lon;timestamp;pressure;altitude;pressure_sealevel;temperature;humidity
9721;BME280;4899;42.644;23.366;2023-04-15T00:01:46;93470.25;;;5.95;100.00
9721;BME280;4899;42.644;23.366;2023-04-15T00:04:12;93466.75;;;5.91;100.00
9721;BME280;4899;42.644;23.366;2023-04-15T00:06:38;93483.47;;;5.97;100.00
9721;BME280;4899;42.644;23.366;2023-04-15T00:09:06;93479.84;;;5.98;100.00
9721;BME280;4899;42.644;23.366;2023-04-15T00:11:31;93472.97;;;5.99;100.00
9721;BME280;4899;42.644;23.366;2023-04-15T00:13:56;93478.81;;;5.99;100.00
9721;BME280;4899;42.644;23.366;2023-04-15T00:16:22;93510.19;;;6.00;100.00
9721;BME280;4899;42.644;23.366;2023-04-15T00:18:48;93506.75;;;5.73;100.00
9721;BME280;4899;42.644;23.366;2023-04-15T00:21:13;93494.19;;;5.85;100.00
9721;BME280;4899;42.644;23.366;2023-04-15T00:23:39;93503.59;;;6.07;100.00
9721;BME280;4899;42.644;23.366;2023-04-15T00:26:04;93511.03;;;6.26;100.00
9721;BME280;4899;42.644;23.366;2023-04-15T00:28:30;93491.19;;;6.32;100.00
9721;BME280;4899;42.644;23.366;2023-04-15T00:30:56;93496.31;;;6.40;100.00
9721;BME280;4899;42.644;23.366;2023-04-15T00:33:21;93497.41;;;6.48;100.00
9721;BME280;4899;42.644;23.366;2023-04-15T00:35:47;93490.03;;;6.55;100.00
9721;BME280;4899;42.644;23.366;2023-04-15T00:38:12;93490.78;;;6.64;100.00
9721;BME280;4899;42.644;23.366;2023-04-15T00:40:38;93503.72;;;6.68;100.00
9721;BME280;4899;42.644;23.366;2023-04-15T00:43:06;93515.44;;;6.69;100.00
9721;BME280;4899;42.644;23.366;2023-04-15T00:45:32;93509.59;;;6.68;100.00
9721;BME280;4899;42.644;23.366;2023-04-15T00:47:58;93514.88;;;6.81;100.00
9721;BME280;4899;42.644;23.366;2023-04-15T00:50:24;93512.16;;;6.77;100.00
9721;BME280;4899;42.644;23.366;2023-04-15T00:52:49;93525.53;;;6.83;100.00
9721;BME280;4899;42.644;23.366;2023-04-15T00:55:15;93516.38;;;6.90;100.00
9721;BME280;4899;42.644;23.366;2023-04-15T00:57:40;93507.66;;;6.91;100.00
9721;BME280;4899;42.644;23.366;2023-04-15T01:00:07;93528.56;;;7.02;100.00
9721;BME280;4899;42.644;23.366;2023-04-15T01:02:34;93524.81;;;6.99;100.00
9721;BME280;4899;42.644;23.366;2023-04-15T01:05:00;93519.41;;;7.01;100.00
9721;BME280;4899;42.644;23.366;2023-04-15T01:07:26;93512.63;;;7.05;100.00
9721;BME280;4899;42.644;23.366;2023-04-15T01:09:52;93520.28;;;7.14;100.00
9721;BME280;4899;42.644;23.366;2023-04-15T01:12:18;93518.47;;;7.14;100.00
9721;BME280;4899;42.644;23.366;2023-04-15T01:14:44;93518.16;;;7.16;100.00
9721;BME280;4899;42.644;23.366;2023-04-15T01:17:10;93514.44;;;7.22;100.00
9721;BME280;4899;42.644;23.366;2023-04-15T01:19:37;93504.19;;;7.22;100.00
9721;BME280;4899;42.644;23.366;2023-04-15T01:22:03;93513.03;;;7.33;100.00
9721;BME280;4899;42.644;23.366;2023-04-15T01:24:30;93496.34;;;7.18;100.00
9721;BME280;4899;42.644;23.366;2023-04-15T01:26:57;93496.97;;;7.15;100.00
9721;BME280;4899;42.644;23.366;2023-04-15T01:29:23;93495.00;;;7.12;100.00
9721;BME280;4899;42.644;23.366;2023-04-15T01:31:53;93509.91;;;7.10;100.00
9721;BME280;4899;42.644;23.366;2023-04-15T01:34:19;93495.03;;;7.03;100.00
9721;BME280;4899;42.644;23.366;2023-04-15T01:36:45;93494.13;;;7.08;100.00
9721;BME280;4899;42.644;23.366;2023-04-15T01:39:11;93500.13;;;7.03;100.00
9721;BME280;4899;42.644;23.366;2023-04-15T01:41:36;93510.81;;;7.05;100.00
9721;BME280;4899;42.644;23.366;2023-04-15T01:44:02;93499.84;;;6.96;100.00
9721;BME280;4899;42.644;23.366;2023-04-15T01:46:27;93494.88;;;6.91;100.00
9721;BME280;4899;42.644;23.366;2023-04-15T01:48:53;93504.94;;;6.88;100.00
9721;BME280;4899;42.644;23.366;2023-04-15T01:51:18;93494.88;;;6.74;100.00
9721;BME280;4899;42.644;23.366;2023-04-15T01:53:44;93512.00;;;6.73;100.00
9721;BME280;4899;42.644;23.366;2023-04-15T01:56:10;93511.53;;;6.63;100.00
9721;BME280;4899;42.644;23.366;2023-04-15T01:58:36;93523.56;;;6.62;100.00
9721;BME280;4899;42.644;23.366;2023-04-15T02:01:01;93526.09;;;6.54;100.00
9721;BME280;4899;42.644;23.366;2023-04-15T02:03:28;93529.69;;;6.44;100.00
9721;BME280;4899;42.644;23.366;2023-04-15T02:05:54;93523.06;;;6.34;100.00
9721;BME280;4899;42.644;23.366;2023-04-15T02:08:19;93515.84;;;6.28;100.00
9721;BME280;4899;42.644;23.366;2023-04-15T02:10:45;93518.53;;;6.31;100.00
9721;BME280;4899;42.644;23.366;2023-04-15T02:13:10;93513.28;;;6.36;100.00
9721;BME280;4899;42.644;23.366;2023-04-15T02:15:36;93501.88;;;6.42;100.00
9721;BME280;4899;42.644;23.366;2023-04-15T02:18:01;93494.22;;;6.42;100.00
9721;BME280;4899;42.644;23.366;2023-04-15T02:20:27;93517.69;;;6.44;100.00
9721;BME280;4899;42.644;23.366;2023-04-15T02:22:54;93506.63;;;6.18;100.00
9721;BME280;4899;42.644;23.366;2023-04-15T02:25:20;93503.16;;;6.14;100.00
9721;BME280;4899;42.644;23.366;2023-04-15T02:27:46;93506.75;;;6.13;100.00
9721;BME280;4899;42.644;23.366;2023-04-15T02:30:11;93505.13;;;6.17;100.00
9721;BME280;4899;42.644;23.366;2023-04-15T02:32:39;93514.09;;;6.06;100.00
9721;BME280;4899;42.644;23.366;2023-04-15T02:35:06;93504.97;;;6.13;100.00
9721;BME280;4899;42.644;23.366;2023-04-15T02:37:34;93500.00;;;6.17;100.00
9721;BME280;4899;42.644;23.366;2023-04-15T02:40:06;93488.75;;;6.18;100.00
9721;BME280;4899;42.644;23.366;2023-04-15T02:42:33;93480.53;;;6.21;100.00
9721;BME280;4899;42.644;23.366;2023-04-15T02:44:58;93492.84;;;6.36;100.00
9721;BME280;4899;42.644;23.366;2023-04-15T02:47:24;93500.06;;;6.43;100.00
9721;BME280;4899;42.644;23.366;2023-04-15T02:49:49;93507.78;;;6.52;100.00
9721;BME280;4899;42.644;23.366;2023-04-15T02:52:15;93519.88;;;6.20;100.00
9721;BME280;4899;42.644;23.366;2023-04-15T02:54:41;93514.88;;;6.06;100.00
9721;BME280;4899;42.644;23.366;2023-04-15T02:57:06;93499.38;;;6.03;100.00
9721;BME280;4899;42.644;23.366;2023-04-15T02:59:32;93503.00;;;6.10;100.00
9721;BME280;4899;42.644;23.366;2023-04-15T03:01:57;93509.63;;;6.11;100.00
9721;BME280;4899;42.644;23.366;2023-04-15T03:04:26;93518.03;;;6.12;100.00
9721;BME280;4899;42.644;23.366;2023-04-15T03:06:54;93515.47;;;6.12;100.00
9721;BME280;4899;42.644;23.366;2023-04-15T03:09:20;93511.41;;;6.11;100.00
9721;BME280;4899;42.644;23.366;2023-04-15T03:11:45;93518.47;;;6.14;100.00
9721;BME280;4899;42.644;23.366;2023-04-15T03:14:17;93527.00;;;6.01;100.00
9721;BME280;4899;42.644;23.366;2023-04-15T03:16:43;93530.84;;;5.90;100.00
9721;BME280;4899;42.644;23.366;2023-04-15T03:19:08;93541.28;;;5.79;100.00
9721;BME280;4899;42.644;23.366;2023-04-15T03:21:34;93546.63;;;5.69;100.00
9721;BME280;4899;42.644;23.366;2023-04-15T03:23:59;93541.31;;;5.57;100.00
9721;BME280;4899;42.644;23.366;2023-04-15T03:26:29;93547.63;;;5.60;100.00
9721;BME280;4899;42.644;23.366;2023-04-15T03:28:55;93553.47;;;5.60;100.00
9721;BME280;4899;42.644;23.366;2023-04-15T03:31:20;93546.09;;;5.50;100.00
9721;BME280;4899;42.644;23.366;2023-04-15T03:33:46;93554.31;;;5.47;100.00
9721;BME280;4899;42.644;23.366;2023-04-15T03:36:11;93542.84;;;5.36;100.00
9721;BME280;4899;42.644;23.366;2023-04-15T03:38:37;93563.81;;;5.33;100.00
9721;BME280;4899;42.644;23.366;2023-04-15T03:41:02;93562.72;;;5.25;100.00
9721;BME280;4899;42.644;23.366;2023-04-15T03:43:28;93563.28;;;5.22;100.00
9721;BME280;4899;42.644;23.366;2023-04-15T03:45:54;93558.56;;;5.15;100.00
9721;BME280;4899;42.644;23.366;2023-04-15T03:48:20;93572.38;;;5.14;100.00
9721;BME280;4899;42.644;23.366;2023-04-15T03:50:45;93562.97;;;5.01;100.00
9721;BME280;4899;42.644;23.366;2023-04-15T03:53:11;93583.59;;;5.13;100.00
9721;BME280;4899;42.644;23.366;2023-04-15T03:55:36;93574.69;;;5.02;100.00
9721;BME280;4899;42.644;23.366;2023-04-15T03:58:02;93576.94;;;5.04;100.00
9721;BME280;4899;42.644;23.366;2023-04-15T04:00:27;93571.19;;;4.98;100.00
9721;BME280;4899;42.644;23.366;2023-04-15T04:02:53;93577.56;;;5.09;100.00
9721;BME280;4899;42.644;23.366;2023-04-15T04:05:18;93552.53;;;4.89;100.00
9721;BME280;4899;42.644;23.366;2023-04-15T04:07:44;93578.50;;;5.13;100.00
9721;BME280;4899;42.644;23.366;2023-04-15T04:10:09;93596.72;;;5.20;100.00
9721;BME280;4899;42.644;23.366;2023-04-15T04:12:35;93587.00;;;5.22;100.00
9721;BME280;4899;42.644;23.366;2023-04-15T04:15:00;93588.97;;;5.25;100.00
9721;BME280;4899;42.644;23.366;2023-04-15T04:17:26;93581.66;;;5.33;100.00
9721;BME280;4899;42.644;23.366;2023-04-15T04:19:51;93586.47;;;5.34;100.00
9721;BME280;4899;42.644;23.366;2023-04-15T04:22:20;93599.84;;;5.40;100.00
9721;BME280;4899;42.644;23.366;2023-04-15T04:24:46;93593.25;;;5.39;100.00
9721;BME280;4899;42.644;23.366;2023-04-15T04:27:11;93589.31;;;5.55;100.00
9721;BME280;4899;42.644;23.366;2023-04-15T04:29:37;93590.41;;;5.63;100.00
9721;BME280;4899;42.644;23.366;2023-04-15T04:32:02;93593.72;;;5.63;100.00
9721;BME280;4899;42.644;23.366;2023-04-15T04:34:27;93586.44;;;5.70;100.00
9721;BME280;4899;42.644;23.366;2023-04-15T04:36:53;93577.00;;;5.79;100.00
9721;BME280;4899;42.644;23.366;2023-04-15T04:39:18;93587.25;;;5.88;100.00
9721;BME280;4899;42.644;23.366;2023-04-15T04:41:44;93589.72;;;5.93;100.00
9721;BME280;4899;42.644;23.366;2023-04-15T04:44:09;93603.28;;;6.02;100.00
9721;BME280;4899;42.644;23.366;2023-04-15T04:46:35;93605.25;;;6.05;100.00
9721;BME280;4899;42.644;23.366;2023-04-15T04:49:00;93608.59;;;6.14;100.00
9721;BME280;4899;42.644;23.366;2023-04-15T04:51:25;93594.16;;;6.10;100.00
9721;BME280;4899;42.644;23.366;2023-04-15T04:53:53;93612.41;;;6.26;100.00
9721;BME280;4899;42.644;23.366;2023-04-15T04:56:18;93600.41;;;6.26;100.00
9721;BME280;4899;42.644;23.366;2023-04-15T04:58:44;93616.50;;;6.35;100.00
9721;BME280;4899;42.644;23.366;2023-04-15T05:01:10;93616.94;;;6.37;100.00
9721;BME280;4899;42.644;23.366;2023-04-15T05:03:35;93612.00;;;6.41;100.00
9721;BME280;4899;42.644;23.366;2023-04-15T05:06:01;93612.50;;;6.52;100.00
9721;BME280;4899;42.644;23.366;2023-04-15T05:08:30;93633.44;;;6.62;100.00
9721;BME280;4899;42.644;23.366;2023-04-15T05:10:55;93643.22;;;6.69;100.00
9721;BME280;4899;42.644;23.366;2023-04-15T05:13:21;93640.94;;;6.67;100.00
9721;BME280;4899;42.644;23.366;2023-04-15T05:15:46;93642.63;;;6.72;100.00
9721;BME280;4899;42.644;23.366;2023-04-15T05:18:12;93625.91;;;6.66;100.00
9721;BME280;4899;42.644;23.366;2023-04-15T05:20:37;93665.56;;;6.94;100.00
9721;BME280;4899;42.644;23.366;2023-04-15T05:23:03;93648.88;;;6.97;100.00
9721;BME280;4899;42.644;23.366;2023-04-15T05:25:28;93660.16;;;7.04;100.00
9721;BME280;4899;42.644;23.366;2023-04-15T05:27:54;93657.00;;;7.07;100.00
9721;BME280;4899;42.644;23.366;2023-04-15T05:30:20;93656.13;;;7.21;100.00
9721;BME280;4899;42.644;23.366;2023-04-15T05:32:46;93652.84;;;7.20;100.00
9721;BME280;4899;42.644;23.366;2023-04-15T05:35:11;93645.91;;;7.21;100.00
9721;BME280;4899;42.644;23.366;2023-04-15T05:37:37;93655.25;;;7.34;100.00
9721;BME280;4899;42.644;23.366;2023-04-15T05:40:03;93649.97;;;7.39;100.00
9721;BME280;4899;42.644;23.366;2023-04-15T05:42:29;93641.41;;;7.44;100.00
9721;BME280;4899;42.644;23.366;2023-04-15T05:44:55;93653.75;;;7.50;100.00
9721;BME280;4899;42.644;23.366;2023-04-15T05:47:20;93650.75;;;7.57;100.00
9721;BME280;4899;42.644;23.366;2023-04-15T05:49:46;93648.03;;;7.62;100.00
9721;BME280;4899;42.644;23.366;2023-04-15T05:52:11;93645.47;;;7.70;100.00
9721;BME280;4899;42.644;23.366;2023-04-15T05:54:38;93660.38;;;7.86;100.00
9721;BME280;4899;42.644;23.366;2023-04-15T05:57:03;93649.66;;;7.84;100.00
9721;BME280;4899;42.644;23.366;2023-04-15T05:59:28;93658.25;;;7.96;100.00
9721;BME280;4899;42.644;23.366;2023-04-15T06:01:54;93676.59;;;8.07;100.00
9721;BME280;4899;42.644;23.366;2023-04-15T06:04:19;93670.13;;;8.18;100.00
9721;BME280;4899;42.644;23.366;2023-04-15T06:06:45;93662.56;;;8.30;100.00
9721;BME280;4899;42.644;23.366;2023-04-15T06:09:11;93679.59;;;8.44;100.00
9721;BME280;4899;42.644;23.366;2023-04-15T06:11:36;93677.13;;;8.56;100.00
9721;BME280;4899;42.644;23.366;2023-04-15T06:14:02;93672.44;;;8.58;100.00
9721;BME280;4899;42.644;23.366;2023-04-15T06:16:27;93673.91;;;8.76;100.00
9721;BME280;4899;42.644;23.366;2023-04-15T06:18:53;93670.53;;;8.84;100.00
9721;BME280;4899;42.644;23.366;2023-04-15T06:21:18;93685.84;;;9.02;100.00
9721;BME280;4899;42.644;23.366;2023-04-15T06:23:44;93679.84;;;8.98;100.00
9721;BME280;4899;42.644;23.366;2023-04-15T06:26:09;93684.13;;;9.14;100.00
9721;BME280;4899;42.644;23.366;2023-04-15T06:28:35;93686.47;;;9.28;100.00
9721;BME280;4899;42.644;23.366;2023-04-15T06:31:00;93676.94;;;9.29;100.00
9721;BME280;4899;42.644;23.366;2023-04-15T06:33:26;93687.44;;;9.44;100.00
9721;BME280;4899;42.644;23.366;2023-04-15T06:35:52;93691.00;;;9.52;100.00
9721;BME280;4899;42.644;23.366;2023-04-15T06:38:17;93708.88;;;9.69;100.00
9721;BME280;4899;42.644;23.366;2023-04-15T06:40:43;93704.59;;;9.73;100.00
9721;BME280;4899;42.644;23.366;2023-04-15T06:43:08;93703.97;;;9.76;100.00
9721;BME280;4899;42.644;23.366;2023-04-15T06:45:34;93710.50;;;9.74;100.00
9721;BME280;4899;42.644;23.366;2023-04-15T06:47:59;93713.22;;;9.90;100.00
9721;BME280;4899;42.644;23.366;2023-04-15T06:50:25;93712.97;;;10.03;100.00
9721;BME280;4899;42.644;23.366;2023-04-15T06:52:55;93728.50;;;10.07;100.00
9721;BME280;4899;42.644;23.366;2023-04-15T06:55:20;93719.09;;;10.11;100.00
9721;BME280;4899;42.644;23.366;2023-04-15T06:57:46;93725.50;;;10.26;100.00
9721;BME280;4899;42.644;23.366;2023-04-15T07:00:12;93735.59;;;10.31;100.00
9721;BME280;4899;42.644;23.366;2023-04-15T07:02:38;93721.00;;;10.23;100.00
9721;BME280;4899;42.644;23.366;2023-04-15T07:05:05;93717.41;;;10.36;100.00
9721;BME280;4899;42.644;23.366;2023-04-15T07:07:31;93730.22;;;10.57;100.00
9721;BME280;4899;42.644;23.366;2023-04-15T07:09:56;93727.75;;;10.60;100.00
9721;BME280;4899;42.644;23.366;2023-04-15T07:12:22;93733.53;;;10.57;100.00
9721;BME280;4899;42.644;23.366;2023-04-15T07:14:47;93735.56;;;10.64;100.00
9721;BME280;4899;42.644;23.366;2023-04-15T07:17:13;93734.88;;;10.75;100.00
9721;BME280;4899;42.644;23.366;2023-04-15T07:19:39;93722.13;;;10.91;100.00
9721;BME280;4899;42.644;23.366;2023-04-15T07:22:04;93715.16;;;11.04;100.00
9721;BME280;4899;42.644;23.366;2023-04-15T07:24:30;93724.50;;;11.21;100.00
9721;BME280;4899;42.644;23.366;2023-04-15T07:26:56;93726.00;;;11.34;100.00
9721;BME280;4899;42.644;23.366;2023-04-15T07:29:23;93728.34;;;11.51;100.00
9721;BME280;4899;42.644;23.366;2023-04-15T07:31:48;93731.03;;;11.55;100.00
9721;BME280;4899;42.644;23.366;2023-04-15T07:34:13;93733.78;;;11.62;100.00
9721;BME280;4899;42.644;23.366;2023-04-15T07:36:39;93731.34;;;11.65;99.91
9721;BME280;4899;42.644;23.366;2023-04-15T07:39:04;93728.75;;;11.65;98.19
9721;BME280;4899;42.644;23.366;2023-04-15T07:41:30;93729.50;;;11.66;96.80
9721;BME280;4899;42.644;23.366;2023-04-15T07:43:56;93722.72;;;11.74;95.06
9721;BME280;4899;42.644;23.366;2023-04-15T07:46:21;93727.78;;;11.70;94.85
9721;BME280;4899;42.644;23.366;2023-04-15T07:48:49;93725.31;;;11.74;96.11
9721;BME280;4899;42.644;23.366;2023-04-15T07:51:15;93732.28;;;11.85;93.51
9721;BME280;4899;42.644;23.366;2023-04-15T07:53:42;93731.84;;;11.95;91.87
9721;BME280;4899;42.644;23.366;2023-04-15T07:56:08;93742.19;;;12.11;89.62
9721;BME280;4899;42.644;23.366;2023-04-15T07:58:34;93725.97;;;12.11;87.80
9721;BME280;4899;42.644;23.366;2023-04-15T08:00:59;93752.41;;;12.36;86.41
9721;BME280;4899;42.644;23.366;2023-04-15T08:03:27;93739.19;;;12.37;84.63
9721;BME280;4899;42.644;23.366;2023-04-15T08:05:52;93749.72;;;12.44;85.07
9721;BME280;4899;42.644;23.366;2023-04-15T08:08:18;93738.81;;;12.51;83.68
9721;BME280;4899;42.644;23.366;2023-04-15T08:10:44;93744.25;;;12.61;82.75
9721;BME280;4899;42.644;23.366;2023-04-15T08:13:09;93717.59;;;12.57;83.47
9721;BME280;4899;42.644;23.366;2023-04-15T08:15:35;93747.28;;;12.95;82.66
9721;BME280;4899;42.644;23.366;2023-04-15T08:18:00;93744.81;;;13.14;80.61
9721;BME280;4899;42.644;23.366;2023-04-15T08:20:26;93748.97;;;13.35;77.87
9721;BME280;4899;42.644;23.366;2023-04-15T08:22:51;93748.94;;;13.50;77.15
9721;BME280;4899;42.644;23.366;2023-04-15T08:25:17;93746.34;;;13.66;76.89
9721;BME280;4899;42.644;23.366;2023-04-15T08:27:44;93745.28;;;13.86;74.74
9721;BME280;4899;42.644;23.366;2023-04-15T08:30:10;93748.13;;;13.81;69.74
9721;BME280;4899;42.644;23.366;2023-04-15T08:32:36;93737.53;;;13.86;68.76
9721;BME280;4899;42.644;23.366;2023-04-15T08:35:02;93733.47;;;14.05;66.84
9721;BME280;4899;42.644;23.366;2023-04-15T08:37:27;93736.06;;;14.24;63.43
9721;BME280;4899;42.644;23.366;2023-04-15T08:39:53;93737.13;;;14.42;62.39
9721;BME280;4899;42.644;23.366;2023-04-15T08:42:22;93734.69;;;14.50;59.95
9721;BME280;4899;42.644;23.366;2023-04-15T08:44:52;93736.59;;;14.33;58.15
9721;BME280;4899;42.644;23.366;2023-04-15T08:47:19;93736.47;;;14.45;57.67
9721;BME280;4899;42.644;23.366;2023-04-15T08:49:46;93732.22;;;14.57;58.02
9721;BME280;4899;42.644;23.366;2023-04-15T08:52:18;93742.28;;;14.81;56.51
9721;BME280;4899;42.644;23.366;2023-04-15T08:54:44;93735.03;;;14.90;56.12
9721;BME280;4899;42.644;23.366;2023-04-15T08:57:10;93724.44;;;14.99;55.96
9721;BME280;4899;42.644;23.366;2023-04-15T08:59:35;93729.44;;;15.11;55.20
9721;BME280;4899;42.644;23.366;2023-04-15T09:02:01;93729.59;;;15.22;54.11
9721;BME280;4899;42.644;23.366;2023-04-15T09:04:27;93731.59;;;15.32;53.41
9721;BME280;4899;42.644;23.366;2023-04-15T09:06:53;93729.81;;;15.36;52.34
9721;BME280;4899;42.644;23.366;2023-04-15T09:09:18;93725.63;;;15.54;52.15
9721;BME280;4899;42.644;23.366;2023-04-15T09:11:44;93727.13;;;15.55;51.00
9721;BME280;4899;42.644;23.366;2023-04-15T09:14:10;93712.81;;;15.61;51.96
9721;BME280;4899;42.644;23.366;2023-04-15T09:16:59;93711.22;;;15.83;48.21
9721;BME280;4899;42.644;23.366;2023-04-15T09:19:25;93703.63;;;15.97;51.60
9721;BME280;4899;42.644;23.366;2023-04-15T09:21:53;93695.31;;;16.15;51.34
9721;BME280;4899;42.644;23.366;2023-04-15T09:24:19;93694.47;;;16.41;50.49
9721;BME280;4899;42.644;23.366;2023-04-15T09:26:44;93702.34;;;16.51;49.23
9721;BME280;4899;42.644;23.366;2023-04-15T09:29:10;93707.81;;;16.76;48.11
9721;BME280;4899;42.644;23.366;2023-04-15T09:31:40;93713.19;;;16.98;47.82
9721;BME280;4899;42.644;23.366;2023-04-15T09:34:06;93721.38;;;17.00;47.27
9721;BME280;4899;42.644;23.366;2023-04-15T09:39:13;93704.22;;;16.91;46.90
9721;BME280;4899;42.644;23.366;2023-04-15T09:41:38;93711.09;;;17.14;46.18
9721;BME280;4899;42.644;23.366;2023-04-15T09:44:05;93718.25;;;17.31;45.82
9721;BME280;4899;42.644;23.366;2023-04-15T09:46:41;93715.03;;;17.45;44.24
9721;BME280;4899;42.644;23.366;2023-04-15T09:49:09;93724.38;;;17.57;45.32
9721;BME280;4899;42.644;23.366;2023-04-15T09:51:35;93729.38;;;17.83;45.19
9721;BME280;4899;42.644;23.366;2023-04-15T09:54:00;93731.78;;;18.17;44.94
9721;BME280;4899;42.644;23.366;2023-04-15T09:56:33;93710.31;;;18.55;42.57
9721;BME280;4899;42.644;23.366;2023-04-15T09:59:00;93720.41;;;18.82;43.86
9721;BME280;4899;42.644;23.366;2023-04-15T10:01:25;93718.59;;;19.00;42.70
9721;BME280;4899;42.644;23.366;2023-04-15T10:03:52;93719.34;;;19.25;42.13
9721;BME280;4899;42.644;23.366;2023-04-15T10:06:22;93691.00;;;19.27;41.95
9721;BME280;4899;42.644;23.366;2023-04-15T10:08:48;93714.47;;;19.56;41.21
9721;BME280;4899;42.644;23.366;2023-04-15T10:11:14;93711.09;;;19.70;40.82
9721;BME280;4899;42.644;23.366;2023-04-15T10:13:40;93711.81;;;19.77;40.27
9721;BME280;4899;42.644;23.366;2023-04-15T10:16:09;93705.88;;;19.73;40.12
9721;BME280;4899;42.644;23.366;2023-04-15T10:18:39;93710.66;;;20.00;39.70
9721;BME280;4899;42.644;23.366;2023-04-15T10:21:05;93688.59;;;20.11;39.78
9721;BME280;4899;42.644;23.366;2023-04-15T10:23:33;93691.59;;;20.10;39.19
9721;BME280;4899;42.644;23.366;2023-04-15T10:25:59;93687.13;;;20.07;38.22
9721;BME280;4899;42.644;23.366;2023-04-15T10:28:25;93664.13;;;19.73;38.39
9721;BME280;4899;42.644;23.366;2023-04-15T10:30:51;93679.38;;;19.78;38.52
9721;BME280;4899;42.644;23.366;2023-04-15T10:33:20;93678.22;;;19.97;37.85
9721;BME280;4899;42.644;23.366;2023-04-15T10:35:48;93687.88;;;20.04;37.85
9721;BME280;4899;42.644;23.366;2023-04-15T10:38:40;93672.00;;;19.62;35.52
9721;BME280;4899;42.644;23.366;2023-04-15T10:41:25;93670.06;;;19.81;38.09
9721;BME280;4899;42.644;23.366;2023-04-15T10:44:01;93690.19;;;19.84;38.24
9721;BME280;4899;42.644;23.366;2023-04-15T10:46:46;93662.16;;;19.98;38.50
9721;BME280;4899;42.644;23.366;2023-04-15T10:49:13;93660.56;;;20.22;38.16
9721;BME280;4899;42.644;23.366;2023-04-15T10:51:41;93674.16;;;20.66;37.73
9721;BME280;4899;42.644;23.366;2023-04-15T10:54:15;93665.06;;;20.84;36.55
9721;BME280;4899;42.644;23.366;2023-04-15T10:56:41;93668.13;;;21.20;37.82
9721;BME280;4899;42.644;23.366;2023-04-15T10:59:08;93667.31;;;21.31;37.38
9721;BME280;4899;42.644;23.366;2023-04-15T11:01:56;93654.81;;;21.49;35.40
9721;BME280;4899;42.644;23.366;2023-04-15T11:04:58;93641.13;;;22.02;34.25
9721;BME280;4899;42.644;23.366;2023-04-15T11:07:46;93625.63;;;22.69;32.62
9721;BME280;4899;42.644;23.366;2023-04-15T11:12:57;93648.09;;;22.70;35.06
9721;BME280;4899;42.644;23.366;2023-04-15T11:15:33;93632.66;;;22.49;33.33
9721;BME280;4899;42.644;23.366;2023-04-15T11:20:33;93636.44;;;22.48;35.05
9721;BME280;4899;42.644;23.366;2023-04-15T11:22:59;93640.69;;;22.65;34.78
9721;BME280;4899;42.644;23.366;2023-04-15T11:25:26;93637.59;;;22.70;34.72
9721;BME280;4899;42.644;23.366;2023-04-15T11:27:53;93641.88;;;22.87;34.56
9721;BME280;4899;42.644;23.366;2023-04-15T11:30:20;93637.84;;;23.06;34.18
9721;BME280;4899;42.644;23.366;2023-04-15T11:32:47;93644.84;;;23.76;33.66
9721;BME280;4899;42.644;23.366;2023-04-15T11:35:13;93639.50;;;24.39;33.30
9721;BME280;4899;42.644;23.366;2023-04-15T11:37:38;93554.22;;;24.04;32.92
9721;BME280;4899;42.644;23.366;2023-04-15T11:40:05;93631.38;;;24.98;32.72
9721;BME280;4899;42.644;23.366;2023-04-15T11:42:31;93619.00;;;25.28;32.09
9721;BME280;4899;42.644;23.366;2023-04-15T11:45:14;93582.09;;;25.73;27.93
9721;BME280;4899;42.644;23.366;2023-04-15T11:47:41;93600.41;;;26.05;30.90
9721;BME280;4899;42.644;23.366;2023-04-15T11:50:21;93558.63;;;26.17;26.46
9721;BME280;4899;42.644;23.366;2023-04-15T11:52:58;93562.63;;;25.83;27.77
9721;BME280;4899;42.644;23.366;2023-04-15T11:55:24;93562.50;;;25.32;29.87
9721;BME280;4899;42.644;23.366;2023-04-15T11:58:06;93534.69;;;24.05;24.99
9721;BME280;4899;42.644;23.366;2023-04-15T12:00:32;93539.19;;;23.88;28.48
9721;BME280;4899;42.644;23.366;2023-04-15T12:06:15;93518.72;;;23.79;25.78
9721;BME280;4899;42.644;23.366;2023-04-15T12:14:11;93574.66;;;23.96;28.64
9721;BME280;4899;42.644;23.366;2023-04-15T12:16:40;93570.63;;;24.44;29.73
9721;BME280;4899;42.644;23.366;2023-04-15T12:19:13;93540.81;;;24.96;29.04
9721;BME280;4899;42.644;23.366;2023-04-15T12:21:41;93577.09;;;25.62;29.23
9721;BME280;4899;42.644;23.366;2023-04-15T12:24:10;93563.69;;;25.15;28.02
9721;BME280;4899;42.644;23.366;2023-04-15T12:26:42;93544.94;;;23.99;27.29
9721;BME280;4899;42.644;23.366;2023-04-15T12:29:10;93553.31;;;23.58;28.53
9721;BME280;4899;42.644;23.366;2023-04-15T12:31:45;93569.50;;;23.33;28.54
9721;BME280;4899;42.644;23.366;2023-04-15T12:34:11;93564.16;;;23.17;27.73
9721;BME280;4899;42.644;23.366;2023-04-15T12:36:36;93558.38;;;22.35;28.43
9721;BME280;4899;42.644;23.366;2023-04-15T12:39:03;93570.53;;;21.92;29.12
9721;BME280;4899;42.644;23.366;2023-04-15T12:41:30;93583.56;;;21.68;29.50
9721;BME280;4899;42.644;23.366;2023-04-15T12:43:55;93596.09;;;21.12;29.00
9721;BME280;4899;42.644;23.366;2023-04-15T12:46:21;93583.72;;;21.16;29.28
9721;BME280;4899;42.644;23.366;2023-04-15T12:48:47;93583.78;;;21.47;29.43
9721;BME280;4899;42.644;23.366;2023-04-15T12:51:13;93588.91;;;22.19;29.18
9721;BME280;4899;42.644;23.366;2023-04-15T12:53:38;93585.66;;;22.88;28.94
9721;BME280;4899;42.644;23.366;2023-04-15T12:56:04;93596.31;;;23.84;28.22
9721;BME280;4899;42.644;23.366;2023-04-15T12:58:30;93581.81;;;23.36;28.69
9721;BME280;4899;42.644;23.366;2023-04-15T13:00:56;93581.69;;;23.00;27.80
9721;BME280;4899;42.644;23.366;2023-04-15T13:03:22;93586.19;;;22.99;28.30
9721;BME280;4899;42.644;23.366;2023-04-15T13:05:47;93576.44;;;22.53;28.71
9721;BME280;4899;42.644;23.366;2023-04-15T13:08:13;93582.13;;;23.18;28.77
9721;BME280;4899;42.644;23.366;2023-04-15T13:10:38;93570.16;;;23.17;27.88
9721;BME280;4899;42.644;23.366;2023-04-15T13:13:04;93568.75;;;22.66;28.30
9721;BME280;4899;42.644;23.366;2023-04-15T13:15:30;93584.84;;;22.91;28.44
9721;BME280;4899;42.644;23.366;2023-04-15T13:17:56;93570.22;;;23.53;27.80
9721;BME280;4899;42.644;23.366;2023-04-15T13:20:21;93552.44;;;24.17;27.12
9721;BME280;4899;42.644;23.366;2023-04-15T13:22:47;93567.19;;;24.31;27.08
9721;BME280;4899;42.644;23.366;2023-04-15T13:25:13;93537.78;;;24.00;26.92